sensor_id;sensor_type;location;lat;lon;timestamp;P1;durP1;ratioP1;P2;durP2;ratioP2
7324;SDS011;3703;48.016;7.802;2023-04-05T00:02:00;4.77;;;3.60;;
7324;SDS011;3703;48.016;7.802;2023-04-05T00:04:48;5.67;;;3.80;;
7324;SDS011;3703;48.016;7.802;2023-04-05T00:07:36;3.80;;;3.40;;
7324;SDS011;3703;48.016;7.802;2023-04-05T00:10:24;4.23;;;3.60;;
7324;SDS011;3703;48.016;7.802;2023-04-05T00:13:13;4.07;;;3.67;;
7324;SDS011;3703;48.016;7.802;2023-04-05T00:16:01;5.60;;;4.03;;
7324;SDS011;3703;48.016;7.802;2023-04-05T00:18:48;6.63;;;3.93;;
7324;SDS011;3703;48.016;7.802;2023-04-05T00:21:37;4.43;;;3.67;;
7324;SDS011;3703;48.016;7.802;2023-04-05T00:24:25;4.97;;;4.07;;
7324;SDS011;3703;48.016;7.802;2023-04-05T00:27:13;4.33;;;3.93;;
7324;SDS011;3703;48.016;7.802;2023-04-05T00:30:03;5.90;;;4.07;;
7324;SDS011;3703;48.016;7.802;2023-04-05T00:32:52;5.80;;;4.07;;
7324;SDS011;3703;48.016;7.802;2023-04-05T00:35:39;6.17;;;4.43;;
7324;SDS011;3703;48.016;7.802;2023-04-05T00:38:27;6.10;;;4.07;;
7324;SDS011;3703;48.016;7.802;2023-04-05T00:41:15;5.47;;;4.20;;
7324;SDS011;3703;48.016;7.802;2023-04-05T00:44:03;5.40;;;4.20;;
7324;SDS011;3703;48.016;7.802;2023-04-05T00:46:53;4.93;;;4.27;;
7324;SDS011;3703;48.016;7.802;2023-04-05T00:49:41;4.40;;;4.00;;
7324;SDS011;3703;48.016;7.802;2023-04-05T00:52:29;5.67;;;3.87;;
7324;SDS011;3703;48.016;7.802;2023-04-05T00:55:17;6.40;;;4.37;;
7324;SDS011;3703;48.016;7.802;2023-04-05T00:58:05;6.43;;;4.37;;
7324;SDS011;3703;48.016;7.802;2023-04-05T01:00:57;6.53;;;4.27;;
7324;SDS011;3703;48.016;7.802;2023-04-05T01:03:52;5.80;;;4.27;;
7324;SDS011;3703;48.016;7.802;2023-04-05T01:06:51;6.23;;;4.40;;
7324;SDS011;3703;48.016;7.802;2023-04-05T01:09:47;5.83;;;4.10;;
7324;SDS011;3703;48.016;7.802;2023-04-05T01:12:42;5.67;;;4.23;;
7324;SDS011;3703;48.016;7.802;2023-04-05T01:15:30;9.13;;;5.23;;
7324;SDS011;3703;48.016;7.802;2023-04-05T01:18:18;5.30;;;4.27;;
7324;SDS011;3703;48.016;7.802;2023-04-05T01:21:15;6.83;;;4.97;;
7324;SDS011;3703;48.016;7.802;2023-04-05T01:24:33;5.70;;;4.53;;
7324;SDS011;3703;48.016;7.802;2023-04-05T01:27:43;5.77;;;4.63;;
7324;SDS011;3703;48.016;7.802;2023-04-05T01:30:48;6.93;;;4.50;;
7324;SDS011;3703;48.016;7.802;2023-04-05T01:33:40;7.00;;;4.80;;
7324;SDS011;3703;48.016;7.802;2023-04-05T01:36:37;6.30;;;5.03;;
7324;SDS011;3703;48.016;7.802;2023-04-05T01:39:27;6.53;;;4.63;;
7324;SDS011;3703;48.016;7.802;2023-04-05T01:42:20;6.23;;;4.73;;
7324;SDS011;3703;48.016;7.802;2023-04-05T01:45:10;5.17;;;4.33;;
7324;SDS011;3703;48.016;7.802;2023-04-05T01:47:59;6.47;;;4.73;;
7324;SDS011;3703;48.016;7.802;2023-04-05T01:50:47;5.17;;;4.13;;
7324;SDS011;3703;48.016;7.802;2023-04-05T01:53:35;8.00;;;4.73;;
7324;SDS011;3703;48.016;7.802;2023-04-05T01:56:22;5.73;;;4.47;;
7324;SDS011;3703;48.016;7.802;2023-04-05T01:59:11;7.33;;;4.33;;
7324;SDS011;3703;48.016;7.802;2023-04-05T02:01:59;9.70;;;4.27;;
7324;SDS011;3703;48.016;7.802;2023-04-05T02:04:48;6.03;;;4.63;;
7324;SDS011;3703;48.016;7.802;2023-04-05T02:07:36;5.20;;;4.17;;
7324;SDS011;3703;48.016;7.802;2023-04-05T02:10:23;6.60;;;4.30;;
7324;SDS011;3703;48.016;7.802;2023-04-05T02:13:11;6.93;;;4.73;;
7324;SDS011;3703;48.016;7.802;2023-04-05T02:15:59;6.40;;;4.20;;
7324;SDS011;3703;48.016;7.802;2023-04-05T02:18:47;7.30;;;4.37;;
7324;SDS011;3703;48.016;7.802;2023-04-05T02:21:36;6.40;;;4.97;;
7324;SDS011;3703;48.016;7.802;2023-04-05T02:24:25;5.87;;;4.30;;
7324;SDS011;3703;48.016;7.802;2023-04-05T02:27:13;6.27;;;4.80;;
7324;SDS011;3703;48.016;7.802;2023-04-05T02:30:00;6.60;;;4.90;;
7324;SDS011;3703;48.016;7.802;2023-04-05T02:32:48;7.70;;;5.03;;
7324;SDS011;3703;48.016;7.802;2023-04-05T02:35:36;6.43;;;4.60;;
7324;SDS011;3703;48.016;7.802;2023-04-05T02:38:25;6.73;;;4.87;;
7324;SDS011;3703;48.016;7.802;2023-04-05T02:41:13;7.10;;;4.50;;
7324;SDS011;3703;48.016;7.802;2023-04-05T02:44:01;6.87;;;4.87;;
7324;SDS011;3703;48.016;7.802;2023-04-05T02:46:48;5.60;;;4.17;;
7324;SDS011;3703;48.016;7.802;2023-04-05T02:49:36;6.83;;;5.33;;
7324;SDS011;3703;48.016;7.802;2023-04-05T02:52:24;6.33;;;4.63;;
7324;SDS011;3703;48.016;7.802;2023-04-05T02:55:13;7.10;;;4.83;;
7324;SDS011;3703;48.016;7.802;2023-04-05T02:58:01;6.97;;;4.50;;
7324;SDS011;3703;48.016;7.802;2023-04-05T03:00:49;8.27;;;5.00;;
7324;SDS011;3703;48.016;7.802;2023-04-05T03:03:38;9.43;;;5.50;;
7324;SDS011;3703;48.016;7.802;2023-04-05T03:06:26;6.07;;;4.50;;
7324;SDS011;3703;48.016;7.802;2023-04-05T03:09:16;7.87;;;5.53;;
7324;SDS011;3703;48.016;7.802;2023-04-05T03:12:05;7.33;;;5.10;;
7324;SDS011;3703;48.016;7.802;2023-04-05T03:14:52;8.63;;;5.73;;
7324;SDS011;3703;48.016;7.802;2023-04-05T03:17:40;8.67;;;5.27;;
7324;SDS011;3703;48.016;7.802;2023-04-05T03:20:28;9.40;;;5.63;;
7324;SDS011;3703;48.016;7.802;2023-04-05T03:23:16;8.93;;;5.20;;
7324;SDS011;3703;48.016;7.802;2023-04-05T03:26:04;9.07;;;5.80;;
7324;SDS011;3703;48.016;7.802;2023-04-05T03:28:53;7.10;;;5.50;;
7324;SDS011;3703;48.016;7.802;2023-04-05T03:31:40;7.47;;;5.03;;
7324;SDS011;3703;48.016;7.802;2023-04-05T03:34:29;7.83;;;5.87;;
7324;SDS011;3703;48.016;7.802;2023-04-05T03:37:16;8.27;;;6.20;;
7324;SDS011;3703;48.016;7.802;2023-04-05T03:40:05;12.30;;;5.23;;
7324;SDS011;3703;48.016;7.802;2023-04-05T03:42:54;9.93;;;5.87;;
7324;SDS011;3703;48.016;7.802;2023-04-05T03:45:44;7.27;;;5.80;;
7324;SDS011;3703;48.016;7.802;2023-04-05T03:48:31;7.57;;;5.10;;
7324;SDS011;3703;48.016;7.802;2023-04-05T03:51:19;6.67;;;5.10;;
7324;SDS011;3703;48.016;7.802;2023-04-05T03:54:07;8.73;;;5.90;;
7324;SDS011;3703;48.016;7.802;2023-04-05T03:56:54;7.77;;;5.70;;
7324;SDS011;3703;48.016;7.802;2023-04-05T03:59:42;9.33;;;5.73;;
7324;SDS011;3703;48.016;7.802;2023-04-05T04:02:32;9.93;;;5.40;;
7324;SDS011;3703;48.016;7.802;2023-04-05T04:05:19;8.53;;;5.07;;
7324;SDS011;3703;48.016;7.802;2023-04-05T04:08:07;7.27;;;5.20;;
7324;SDS011;3703;48.016;7.802;2023-04-05T04:10:55;8.43;;;5.90;;
7324;SDS011;3703;48.016;7.802;2023-04-05T04:13:43;29.67;;;12.97;;
7324;SDS011;3703;48.016;7.802;2023-04-05T04:16:31;17.13;;;7.43;;
7324;SDS011;3703;48.016;7.802;2023-04-05T04:19:20;13.13;;;7.23;;
7324;SDS011;3703;48.016;7.802;2023-04-05T04:22:07;12.77;;;7.57;;
7324;SDS011;3703;48.016;7.802;2023-04-05T04:24:57;12.50;;;7.10;;
7324;SDS011;3703;48.016;7.802;2023-04-05T04:27:48;15.33;;;8.67;;
7324;SDS011;3703;48.016;7.802;2023-04-05T04:30:37;14.00;;;7.40;;
7324;SDS011;3703;48.016;7.802;2023-04-05T04:33:27;12.43;;;6.37;;
7324;SDS011;3703;48.016;7.802;2023-04-05T04:36:17;9.37;;;6.20;;
7324;SDS011;3703;48.016;7.802;2023-04-05T04:39:19;9.17;;;6.00;;
7324;SDS011;3703;48.016;7.802;2023-04-05T04:42:11;9.17;;;5.87;;
7324;SDS011;3703;48.016;7.802;2023-04-05T04:44:59;8.17;;;5.30;;
7324;SDS011;3703;48.016;7.802;2023-04-05T04:47:47;9.20;;;5.53;;
7324;SDS011;3703;48.016;7.802;2023-04-05T04:50:37;8.00;;;5.47;;
7324;SDS011;3703;48.016;7.802;2023-04-05T04:53:26;6.00;;;5.07;;
7324;SDS011;3703;48.016;7.802;2023-04-05T04:56:13;7.87;;;5.70;;
7324;SDS011;3703;48.016;7.802;2023-04-05T04:59:01;8.40;;;5.80;;
7324;SDS011;3703;48.016;7.802;2023-04-05T05:01:49;8.73;;;5.73;;
7324;SDS011;3703;48.016;7.802;2023-04-05T05:04:37;8.37;;;6.43;;
7324;SDS011;3703;48.016;7.802;2023-04-05T05:07:25;9.27;;;6.10;;
7324;SDS011;3703;48.016;7.802;2023-04-05T05:10:16;6.83;;;5.60;;
7324;SDS011;3703;48.016;7.802;2023-04-05T05:13:04;13.43;;;6.00;;
7324;SDS011;3703;48.016;7.802;2023-04-05T05:15:51;10.00;;;6.10;;
7324;SDS011;3703;48.016;7.802;2023-04-05T05:18:39;8.73;;;6.30;;
7324;SDS011;3703;48.016;7.802;2023-04-05T05:21:27;7.40;;;6.07;;
7324;SDS011;3703;48.016;7.802;2023-04-05T05:24:15;9.80;;;6.37;;
7324;SDS011;3703;48.016;7.802;2023-04-05T05:27:04;10.73;;;6.13;;
7324;SDS011;3703;48.016;7.802;2023-04-05T05:29:52;8.47;;;5.73;;
7324;SDS011;3703;48.016;7.802;2023-04-05T05:32:40;13.90;;;6.43;;
7324;SDS011;3703;48.016;7.802;2023-04-05T05:35:28;8.97;;;6.50;;
7324;SDS011;3703;48.016;7.802;2023-04-05T05:38:15;8.43;;;6.47;;
7324;SDS011;3703;48.016;7.802;2023-04-05T05:41:03;8.50;;;5.97;;
7324;SDS011;3703;48.016;7.802;2023-04-05T05:43:52;11.10;;;6.57;;
7324;SDS011;3703;48.016;7.802;2023-04-05T05:46:40;11.77;;;7.40;;
7324;SDS011;3703;48.016;7.802;2023-04-05T05:49:28;9.53;;;6.63;;
7324;SDS011;3703;48.016;7.802;2023-04-05T05:52:15;12.17;;;6.80;;
7324;SDS011;3703;48.016;7.802;2023-04-05T05:55:03;9.57;;;7.37;;
7324;SDS011;3703;48.016;7.802;2023-04-05T05:57:52;11.93;;;7.30;;
7324;SDS011;3703;48.016;7.802;2023-04-05T06:00:41;9.90;;;6.87;;
7324;SDS011;3703;48.016;7.802;2023-04-05T06:03:29;9.77;;;7.13;;
7324;SDS011;3703;48.016;7.802;2023-04-05T06:06:18;11.60;;;8.00;;
7324;SDS011;3703;48.016;7.802;2023-04-05T06:09:06;13.60;;;6.97;;
7324;SDS011;3703;48.016;7.802;2023-04-05T06:11:54;10.83;;;7.20;;
7324;SDS011;3703;48.016;7.802;2023-04-05T06:14:42;11.17;;;7.43;;
7324;SDS011;3703;48.016;7.802;2023-04-05T06:17:32;11.27;;;7.73;;
7324;SDS011;3703;48.016;7.802;2023-04-05T06:20:26;9.63;;;7.20;;
7324;SDS011;3703;48.016;7.802;2023-04-05T06:23:13;12.40;;;8.13;;
7324;SDS011;3703;48.016;7.802;2023-04-05T06:26:01;11.83;;;7.23;;
7324;SDS011;3703;48.016;7.802;2023-04-05T06:28:49;14.40;;;8.20;;
7324;SDS011;3703;48.016;7.802;2023-04-05T06:31:37;8.53;;;7.20;;
7324;SDS011;3703;48.016;7.802;2023-04-05T06:34:27;11.10;;;7.87;;
7324;SDS011;3703;48.016;7.802;2023-04-05T06:37:14;10.90;;;6.77;;
7324;SDS011;3703;48.016;7.802;2023-04-05T06:40:02;11.93;;;7.77;;
7324;SDS011;3703;48.016;7.802;2023-04-05T06:42:51;10.10;;;7.20;;
7324;SDS011;3703;48.016;7.802;2023-04-05T06:45:39;10.97;;;7.37;;
7324;SDS011;3703;48.016;7.802;2023-04-05T06:48:28;12.20;;;6.80;;
7324;SDS011;3703;48.016;7.802;2023-04-05T06:51:17;10.67;;;7.13;;
7324;SDS011;3703;48.016;7.802;2023-04-05T06:54:05;12.83;;;7.10;;
7324;SDS011;3703;48.016;7.802;2023-04-05T06:56:53;12.03;;;6.67;;
7324;SDS011;3703;48.016;7.802;2023-04-05T06:59:41;13.13;;;7.20;;
7324;SDS011;3703;48.016;7.802;2023-04-05T07:02:28;10.83;;;7.73;;
7324;SDS011;3703;48.016;7.802;2023-04-05T07:05:16;11.60;;;7.03;;
7324;SDS011;3703;48.016;7.802;2023-04-05T07:08:05;10.10;;;7.70;;
7324;SDS011;3703;48.016;7.802;2023-04-05T07:10:53;11.57;;;7.53;;
7324;SDS011;3703;48.016;7.802;2023-04-05T07:13:41;11.97;;;7.77;;
7324;SDS011;3703;48.016;7.802;2023-04-05T07:16:29;11.93;;;7.00;;
7324;SDS011;3703;48.016;7.802;2023-04-05T07:19:16;15.63;;;9.20;;
7324;SDS011;3703;48.016;7.802;2023-04-05T07:22:04;15.90;;;10.07;;
7324;SDS011;3703;48.016;7.802;2023-04-05T07:24:53;17.63;;;8.60;;
7324;SDS011;3703;48.016;7.802;2023-04-05T07:27:41;14.47;;;8.50;;
7324;SDS011;3703;48.016;7.802;2023-04-05T07:30:29;10.93;;;7.33;;
7324;SDS011;3703;48.016;7.802;2023-04-05T07:33:17;10.90;;;8.07;;
7324;SDS011;3703;48.016;7.802;2023-04-05T07:36:06;11.47;;;6.43;;
7324;SDS011;3703;48.016;7.802;2023-04-05T07:38:55;9.93;;;6.30;;
7324;SDS011;3703;48.016;7.802;2023-04-05T07:41:45;9.87;;;6.47;;
7324;SDS011;3703;48.016;7.802;2023-04-05T07:44:33;10.53;;;7.07;;
7324;SDS011;3703;48.016;7.802;2023-04-05T07:47:22;14.10;;;7.10;;
7324;SDS011;3703;48.016;7.802;2023-04-05T07:50:10;12.63;;;7.63;;
7324;SDS011;3703;48.016;7.802;2023-04-05T07:52:59;10.70;;;6.57;;
7324;SDS011;3703;48.016;7.802;2023-04-05T07:55:48;9.77;;;7.23;;
7324;SDS011;3703;48.016;7.802;2023-04-05T07:58:39;13.43;;;7.27;;
7324;SDS011;3703;48.016;7.802;2023-04-05T08:01:27;9.37;;;6.67;;
7324;SDS011;3703;48.016;7.802;2023-04-05T08:04:15;8.50;;;6.40;;
7324;SDS011;3703;48.016;7.802;2023-04-05T08:07:04;11.60;;;7.23;;
7324;SDS011;3703;48.016;7.802;2023-04-05T08:09:51;11.20;;;7.47;;
7324;SDS011;3703;48.016;7.802;2023-04-05T08:12:42;7.77;;;5.67;;
7324;SDS011;3703;48.016;7.802;2023-04-05T08:15:32;11.53;;;6.77;;
7324;SDS011;3703;48.016;7.802;2023-04-05T08:18:20;9.27;;;7.03;;
7324;SDS011;3703;48.016;7.802;2023-04-05T08:21:07;8.40;;;6.47;;
7324;SDS011;3703;48.016;7.802;2023-04-05T08:23:55;10.90;;;7.03;;
7324;SDS011;3703;48.016;7.802;2023-04-05T08:26:44;10.53;;;6.63;;
7324;SDS011;3703;48.016;7.802;2023-04-05T08:29:33;10.03;;;6.80;;
7324;SDS011;3703;48.016;7.802;2023-04-05T08:32:22;9.47;;;6.43;;
7324;SDS011;3703;48.016;7.802;2023-04-05T08:35:10;8.37;;;5.83;;
7324;SDS011;3703;48.016;7.802;2023-04-05T08:37:57;7.73;;;5.67;;
7324;SDS011;3703;48.016;7.802;2023-04-05T08:40:45;7.80;;;5.43;;
7324;SDS011;3703;48.016;7.802;2023-04-05T08:43:38;8.80;;;5.97;;
7324;SDS011;3703;48.016;7.802;2023-04-05T08:46:34;7.83;;;5.50;;
7324;SDS011;3703;48.016;7.802;2023-04-05T08:49:23;6.10;;;5.07;;
7324;SDS011;3703;48.016;7.802;2023-04-05T08:52:10;6.37;;;5.67;;
7324;SDS011;3703;48.016;7.802;2023-04-05T08:54:58;7.93;;;5.67;;
7324;SDS011;3703;48.016;7.802;2023-04-05T08:57:47;8.07;;;5.57;;
7324;SDS011;3703;48.016;7.802;2023-04-05T09:00:38;7.83;;;5.80;;
7324;SDS011;3703;48.016;7.802;2023-04-05T09:03:28;7.07;;;5.53;;
7324;SDS011;3703;48.016;7.802;2023-04-05T09:06:23;5.70;;;4.77;;
7324;SDS011;3703;48.016;7.802;2023-04-05T09:09:13;7.73;;;5.93;;
7324;SDS011;3703;48.016;7.802;2023-04-05T09:12:01;6.63;;;5.60;;
7324;SDS011;3703;48.016;7.802;2023-04-05T09:14:50;6.87;;;5.60;;
7324;SDS011;3703;48.016;7.802;2023-04-05T09:17:38;7.07;;;5.27;;
7324;SDS011;3703;48.016;7.802;2023-04-05T09:20:29;8.77;;;6.63;;
7324;SDS011;3703;48.016;7.802;2023-04-05T09:23:18;8.33;;;5.93;;
7324;SDS011;3703;48.016;7.802;2023-04-05T09:26:18;6.00;;;4.90;;
7324;SDS011;3703;48.016;7.802;2023-04-05T09:29:06;6.23;;;5.43;;
7324;SDS011;3703;48.016;7.802;2023-04-05T09:31:54;6.60;;;4.83;;
7324;SDS011;3703;48.016;7.802;2023-04-05T09:34:42;6.43;;;5.33;;
7324;SDS011;3703;48.016;7.802;2023-04-05T09:37:30;5.43;;;4.43;;
7324;SDS011;3703;48.016;7.802;2023-04-05T09:40:19;5.10;;;4.50;;
7324;SDS011;3703;48.016;7.802;2023-04-05T09:43:08;5.80;;;4.83;;
7324;SDS011;3703;48.016;7.802;2023-04-05T09:45:55;7.57;;;5.77;;
7324;SDS011;3703;48.016;7.802;2023-04-05T09:48:46;7.53;;;5.20;;
7324;SDS011;3703;48.016;7.802;2023-04-05T09:51:34;7.43;;;6.33;;
7324;SDS011;3703;48.016;7.802;2023-04-05T09:54:24;7.40;;;5.37;;
7324;SDS011;3703;48.016;7.802;2023-04-05T09:57:15;8.60;;;5.73;;
7324;SDS011;3703;48.016;7.802;2023-04-05T10:00:04;7.70;;;5.83;;
7324;SDS011;3703;48.016;7.802;2023-04-05T10:02:55;6.40;;;5.80;;
7324;SDS011;3703;48.016;7.802;2023-04-05T10:05:43;7.07;;;5.23;;
7324;SDS011;3703;48.016;7.802;2023-04-05T10:08:31;6.93;;;5.83;;
7324;SDS011;3703;48.016;7.802;2023-04-05T10:11:18;6.30;;;5.60;;
7324;SDS011;3703;48.016;7.802;2023-04-05T10:14:08;7.83;;;5.83;;
7324;SDS011;3703;48.016;7.802;2023-04-05T10:16:58;6.10;;;5.10;;
7324;SDS011;3703;48.016;7.802;2023-04-05T10:19:56;6.93;;;5.40;;
7324;SDS011;3703;48.016;7.802;2023-04-05T10:22:59;6.40;;;5.63;;
7324;SDS011;3703;48.016;7.802;2023-04-05T10:25:56;6.07;;;5.33;;
7324;SDS011;3703;48.016;7.802;2023-04-05T10:28:51;6.20;;;4.97;;
7324;SDS011;3703;48.016;7.802;2023-04-05T10:31:51;5.77;;;5.13;;
7324;SDS011;3703;48.016;7.802;2023-04-05T10:34:47;6.23;;;5.50;;
7324;SDS011;3703;48.016;7.802;2023-04-05T10:37:46;6.47;;;5.73;;
7324;SDS011;3703;48.016;7.802;2023-04-05T10:40:45;6.67;;;5.73;;
7324;SDS011;3703;48.016;7.802;2023-04-05T10:43:34;6.57;;;5.83;;
7324;SDS011;3703;48.016;7.802;2023-04-05T10:46:23;7.43;;;5.43;;
7324;SDS011;3703;48.016;7.802;2023-04-05T10:49:18;6.37;;;5.60;;
7324;SDS011;3703;48.016;7.802;2023-04-05T10:52:08;6.60;;;5.80;;
7324;SDS011;3703;48.016;7.802;2023-04-05T10:54:56;7.60;;;5.90;;
7324;SDS011;3703;48.016;7.802;2023-04-05T10:57:44;5.97;;;5.37;;
7324;SDS011;3703;48.016;7.802;2023-04-05T11:00:33;6.80;;;5.53;;
7324;SDS011;3703;48.016;7.802;2023-04-05T11:06:38;9.50;;;5.70;;
7324;SDS011;3703;48.016;7.802;2023-04-05T11:09:27;7.23;;;5.37;;
7324;SDS011;3703;48.016;7.802;2023-04-05T11:12:15;5.70;;;5.10;;
7324;SDS011;3703;48.016;7.802;2023-04-05T11:18:19;6.53;;;5.33;;
7324;SDS011;3703;48.016;7.802;2023-04-05T11:21:07;7.23;;;5.83;;
7324;SDS011;3703;48.016;7.802;2023-04-05T11:23:59;7.33;;;6.20;;
7324;SDS011;3703;48.016;7.802;2023-04-05T11:26:52;6.83;;;5.77;;
7324;SDS011;3703;48.016;7.802;2023-04-05T11:29:45;7.40;;;5.53;;
7324;SDS011;3703;48.016;7.802;2023-04-05T11:32:38;9.73;;;5.73;;
7324;SDS011;3703;48.016;7.802;2023-04-05T11:35:27;6.17;;;5.43;;
7324;SDS011;3703;48.016;7.802;2023-04-05T11:38:21;7.10;;;6.23;;
7324;SDS011;3703;48.016;7.802;2023-04-05T11:46:17;5.53;;;5.03;;
7324;SDS011;3703;48.016;7.802;2023-04-05T11:49:11;7.53;;;5.90;;
7324;SDS011;3703;48.016;7.802;2023-04-05T11:52:08;7.20;;;5.90;;
7324;SDS011;3703;48.016;7.802;2023-04-05T11:55:01;7.73;;;5.00;;
7324;SDS011;3703;48.016;7.802;2023-04-05T11:57:51;7.27;;;6.13;;
7324;SDS011;3703;48.016;7.802;2023-04-05T12:00:39;7.97;;;6.13;;
7324;SDS011;3703;48.016;7.802;2023-04-05T12:03:28;8.37;;;6.03;;
7324;SDS011;3703;48.016;7.802;2023-04-05T12:06:20;6.47;;;5.53;;
7324;SDS011;3703;48.016;7.802;2023-04-05T12:09:08;6.63;;;5.47;;
7324;SDS011;3703;48.016;7.802;2023-04-05T12:11:56;6.43;;;5.23;;
7324;SDS011;3703;48.016;7.802;2023-04-05T12:14:47;6.53;;;5.57;;
7324;SDS011;3703;48.016;7.802;2023-04-05T12:17:44;6.70;;;5.43;;
7324;SDS011;3703;48.016;7.802;2023-04-05T12:20:36;6.10;;;5.50;;
7324;SDS011;3703;48.016;7.802;2023-04-05T12:23:27;9.70;;;6.03;;
7324;SDS011;3703;48.016;7.802;2023-04-05T12:26:15;8.07;;;5.63;;
7324;SDS011;3703;48.016;7.802;2023-04-05T12:29:02;9.67;;;5.93;;
7324;SDS011;3703;48.016;7.802;2023-04-05T12:31:50;6.90;;;6.20;;
7324;SDS011;3703;48.016;7.802;2023-04-05T12:34:46;7.70;;;5.53;;
7324;SDS011;3703;48.016;7.802;2023-04-05T12:37:35;8.27;;;5.20;;
7324;SDS011;3703;48.016;7.802;2023-04-05T12:40:25;6.97;;;5.77;;
7324;SDS011;3703;48.016;7.802;2023-04-05T12:43:15;7.43;;;5.80;;
7324;SDS011;3703;48.016;7.802;2023-04-05T12:46:05;7.07;;;6.30;;
7324;SDS011;3703;48.016;7.802;2023-04-05T12:48:58;10.07;;;5.47;;
7324;SDS011;3703;48.016;7.802;2023-04-05T12:51:46;6.20;;;5.50;;
7324;SDS011;3703;48.016;7.802;2023-04-05T12:54:35;6.20;;;5.60;;
7324;SDS011;3703;48.016;7.802;2023-04-05T12:57:28;7.13;;;6.00;;
7324;SDS011;3703;48.016;7.802;2023-04-05T13:00:17;9.23;;;6.30;;
7324;SDS011;3703;48.016;7.802;2023-04-05T13:03:14;7.07;;;6.37;;
7324;SDS011;3703;48.016;7.802;2023-04-05T13:06:05;6.03;;;5.40;;
7324;SDS011;3703;48.016;7.802;2023-04-05T13:08:53;7.13;;;6.00;;
7324;SDS011;3703;48.016;7.802;2023-04-05T13:11:43;5.50;;;5.00;;
7324;SDS011;3703;48.016;7.802;2023-04-05T13:14:31;7.23;;;5.40;;
7324;SDS011;3703;48.016;7.802;2023-04-05T13:17:18;5.57;;;4.87;;
7324;SDS011;3703;48.016;7.802;2023-04-05T13:20:06;6.17;;;5.57;;
7324;SDS011;3703;48.016;7.802;2023-04-05T13:22:55;5.50;;;4.77;;
7324;SDS011;3703;48.016;7.802;2023-04-05T13:25:43;5.50;;;5.00;;
7324;SDS011;3703;48.016;7.802;2023-04-05T13:28:35;7.60;;;5.80;;
7324;SDS011;3703;48.016;7.802;2023-04-05T13:31:23;5.67;;;4.97;;
7324;SDS011;3703;48.016;7.802;2023-04-05T13:34:10;8.40;;;5.33;;
7324;SDS011;3703;48.016;7.802;2023-04-05T13:36:58;6.53;;;5.30;;
7324;SDS011;3703;48.016;7.802;2023-04-05T13:39:47;5.90;;;5.30;;
7324;SDS011;3703;48.016;7.802;2023-04-05T13:42:35;5.20;;;4.70;;
7324;SDS011;3703;48.016;7.802;2023-04-05T13:45:25;6.50;;;5.33;;
7324;SDS011;3703;48.016;7.802;2023-04-05T13:48:13;6.80;;;5.40;;
7324;SDS011;3703;48.016;7.802;2023-04-05T13:51:01;6.73;;;5.67;;
7324;SDS011;3703;48.016;7.802;2023-04-05T13:53:49;7.90;;;5.40;;
7324;SDS011;3703;48.016;7.802;2023-04-05T13:56:36;6.10;;;5.43;;
7324;SDS011;3703;48.016;7.802;2023-04-05T13:59:24;7.57;;;6.00;;
7324;SDS011;3703;48.016;7.802;2023-04-05T14:02:14;6.60;;;5.90;;
7324;SDS011;3703;48.016;7.802;2023-04-05T14:05:04;6.13;;;5.53;;
7324;SDS011;3703;48.016;7.802;2023-04-05T14:07:53;6.07;;;5.20;;
7324;SDS011;3703;48.016;7.802;2023-04-05T14:10:41;6.13;;;4.80;;
7324;SDS011;3703;48.016;7.802;2023-04-05T14:13:29;5.63;;;4.90;;
7324;SDS011;3703;48.016;7.802;2023-04-05T14:16:16;7.10;;;5.50;;
7324;SDS011;3703;48.016;7.802;2023-04-05T14:19:06;7.10;;;5.17;;
7324;SDS011;3703;48.016;7.802;2023-04-05T14:21:54;6.17;;;5.30;;
7324;SDS011;3703;48.016;7.802;2023-04-05T14:24:43;5.50;;;4.80;;
7324;SDS011;3703;48.016;7.802;2023-04-05T14:27:31;5.40;;;4.90;;
7324;SDS011;3703;48.016;7.802;2023-04-05T14:30:20;6.10;;;5.47;;
7324;SDS011;3703;48.016;7.802;2023-04-05T14:33:08;9.07;;;5.70;;
7324;SDS011;3703;48.016;7.802;2023-04-05T14:36:00;6.27;;;5.60;;
7324;SDS011;3703;48.016;7.802;2023-04-05T14:38:49;6.43;;;5.70;;
7324;SDS011;3703;48.016;7.802;2023-04-05T14:41:42;9.80;;;5.70;;
7324;SDS011;3703;48.016;7.802;2023-04-05T14:44:40;5.43;;;4.93;;
7324;SDS011;3703;48.016;7.802;2023-04-05T14:47:33;6.57;;;5.13;;
7324;SDS011;3703;48.016;7.802;2023-04-05T14:50:39;7.80;;;5.67;;
7324;SDS011;3703;48.016;7.802;2023-04-05T14:53:29;5.53;;;4.97;;
7324;SDS011;3703;48.016;7.802;2023-04-05T14:56:29;7.23;;;5.27;;
7324;SDS011;3703;48.016;7.802;2023-04-05T14:59:18;6.07;;;4.80;;
7324;SDS011;3703;48.016;7.802;2023-04-05T15:02:05;7.17;;;5.17;;
7324;SDS011;3703;48.016;7.802;2023-04-05T15:04:54;6.13;;;5.50;;
7324;SDS011;3703;48.016;7.802;2023-04-05T15:07:47;6.63;;;5.00;;
7324;SDS011;3703;48.016;7.802;2023-04-05T15:10:37;6.50;;;4.40;;
7324;SDS011;3703;48.016;7.802;2023-04-05T15:13:26;5.67;;;4.63;;
7324;SDS011;3703;48.016;7.802;2023-04-05T15:16:14;6.47;;;5.33;;
7324;SDS011;3703;48.016;7.802;2023-04-05T15:19:02;7.23;;;4.40;;
7324;SDS011;3703;48.016;7.802;2023-04-05T15:21:53;5.37;;;4.67;;
7324;SDS011;3703;48.016;7.802;2023-04-05T15:24:41;6.07;;;4.43;;
7324;SDS011;3703;48.016;7.802;2023-04-05T15:27:30;7.07;;;4.50;;
7324;SDS011;3703;48.016;7.802;2023-04-05T15:30:18;5.03;;;4.53;;
7324;SDS011;3703;48.016;7.802;2023-04-05T15:33:11;6.10;;;4.60;;
7324;SDS011;3703;48.016;7.802;2023-04-05T15:36:10;5.67;;;4.80;;
7324;SDS011;3703;48.016;7.802;2023-04-05T15:38:58;6.37;;;5.47;;
7324;SDS011;3703;48.016;7.802;2023-04-05T15:41:46;5.93;;;4.60;;
7324;SDS011;3703;48.016;7.802;2023-04-05T15:44:36;4.83;;;4.40;;
7324;SDS011;3703;48.016;7.802;2023-04-05T15:47:24;5.53;;;4.67;;
7324;SDS011;3703;48.016;7.802;2023-04-05T15:50:15;4.73;;;4.00;;
7324;SDS011;3703;48.016;7.802;2023-04-05T15:53:05;5.03;;;3.83;;
7324;SDS011;3703;48.016;7.802;2023-04-05T15:55:53;4.17;;;3.77;;
7324;SDS011;3703;48.016;7.802;2023-04-05T15:58:42;5.13;;;4.43;;
7324;SDS011;3703;48.016;7.802;2023-04-05T16:01:31;4.70;;;4.30;;
7324;SDS011;3703;48.016;7.802;2023-04-05T16:04:19;6.23;;;4.40;;
7324;SDS011;3703;48.016;7.802;2023-04-05T16:07:07;4.97;;;3.90;;
7324;SDS011;3703;48.016;7.802;2023-04-05T16:09:55;5.43;;;4.00;;
7324;SDS011;3703;48.016;7.802;2023-04-05T16:12:43;7.63;;;3.50;;
7324;SDS011;3703;48.016;7.802;2023-04-05T16:15:31;5.93;;;3.90;;
7324;SDS011;3703;48.016;7.802;2023-04-05T16:18:20;7.57;;;6.27;;
7324;SDS011;3703;48.016;7.802;2023-04-05T16:21:08;5.13;;;4.63;;
7324;SDS011;3703;48.016;7.802;2023-04-05T16:23:56;6.20;;;4.27;;
7324;SDS011;3703;48.016;7.802;2023-04-05T16:26:45;3.93;;;3.50;;
7324;SDS011;3703;48.016;7.802;2023-04-05T16:29:33;16.97;;;4.20;;
7324;SDS011;3703;48.016;7.802;2023-04-05T16:32:20;4.23;;;3.50;;
7324;SDS011;3703;48.016;7.802;2023-04-05T16:35:09;4.17;;;3.60;;
7324;SDS011;3703;48.016;7.802;2023-04-05T16:37:57;5.33;;;4.13;;
7324;SDS011;3703;48.016;7.802;2023-04-05T16:40:45;4.70;;;4.17;;
7324;SDS011;3703;48.016;7.802;2023-04-05T16:43:32;3.40;;;3.10;;
7324;SDS011;3703;48.016;7.802;2023-04-05T16:46:20;3.93;;;3.57;;
7324;SDS011;3703;48.016;7.802;2023-04-05T16:49:08;8.03;;;3.50;;
7324;SDS011;3703;48.016;7.802;2023-04-05T16:51:57;5.40;;;3.70;;
7324;SDS011;3703;48.016;7.802;2023-04-05T16:54:44;4.10;;;3.23;;
7324;SDS011;3703;48.016;7.802;2023-04-05T16:57:32;6.37;;;3.60;;
7324;SDS011;3703;48.016;7.802;2023-04-05T17:00:20;9.03;;;4.17;;
7324;SDS011;3703;48.016;7.802;2023-04-05T17:03:08;5.73;;;3.60;;
7324;SDS011;3703;48.016;7.802;2023-04-05T17:05:56;5.90;;;3.80;;
7324;SDS011;3703;48.016;7.802;2023-04-05T17:08:45;5.23;;;4.17;;
7324;SDS011;3703;48.016;7.802;2023-04-05T17:11:32;6.80;;;3.67;;
7324;SDS011;3703;48.016;7.802;2023-04-05T17:14:20;3.93;;;3.50;;
7324;SDS011;3703;48.016;7.802;2023-04-05T17:17:07;5.77;;;4.20;;
7324;SDS011;3703;48.016;7.802;2023-04-05T17:19:55;5.07;;;3.80;;
7324;SDS011;3703;48.016;7.802;2023-04-05T17:22:43;6.37;;;4.70;;
7324;SDS011;3703;48.016;7.802;2023-04-05T17:25:32;5.20;;;3.57;;
7324;SDS011;3703;48.016;7.802;2023-04-05T17:28:19;3.93;;;3.20;;
7324;SDS011;3703;48.016;7.802;2023-04-05T17:31:07;5.00;;;3.63;;
7324;SDS011;3703;48.016;7.802;2023-04-05T17:33:55;4.50;;;3.53;;
7324;SDS011;3703;48.016;7.802;2023-04-05T17:36:42;4.00;;;3.60;;
7324;SDS011;3703;48.016;7.802;2023-04-05T17:39:31;4.30;;;3.60;;
7324;SDS011;3703;48.016;7.802;2023-04-05T17:42:20;5.10;;;3.80;;